Terminal Aerodrome Forecast
Issued by NWS

Home | Current Version | Previous Version | Text Only | Print | Product List | Glossary On
Versions: 1 2 3 4 5 6 7 8 9 10 11 12
966
FTUS46 KHNX 251125
TAFVIS
TAF
KVIS 251125Z 2512/2612 30007KT P6SM OVC040
      TEMPO 2521/2601 5SM TSRA BR OVC040CB
     FM260200 33007KT P6SM SCT030 BKN050=

USA.gov is the U.S. government's official web portal to all federal, state and local government web resources and services.